Saint Cloud, Minnesota
Current Conditions -  °F | °C
As of 9:53 AM on Thursday 30 Oct 2014 (Local Time) from KSTC Reporting Station
Overcast Overcast  
Wind Chill: 41°   Ceiling: 4100
Heat Index: 41°   Visibility: 10mi
Dew Point: 35°   Wind: 0mph
Humidity: 79%   Direction: NA
Pressure: 30.08"   Gusts: NA
Location:  45.55°N, 94.06°W
Report Text: KSTC 301453Z 00000KT 10SM OVC041 05/02 A3008 RMK AO2 SLP203 T00500017 51016
Loading
Personal Weather Stations






























Interactive Weather Map
Tropical Storm Tracking
New forecast layout! Learn more

10-Day Weather Forecast

Advertisements
Track Severe Weather on mobile